<?xml version='1.0' encoding='UTF-8'?><gpx version="1.1" creator="JPX - https://github.com/jenetics/jpx" xmlns="http://www.topografix.com/GPX/1/1"><trk><trkseg><trkpt lat="41.891749402438364" lon="2.7692977885234438"><ele>127.99999999999999</ele><time>2026-04-11T07:30:19.988Z</time></trkpt><trkpt lat="41.89169314284266" lon="2.7692596446462936"><ele>128.0</ele><time>2026-04-11T07:30:22.991Z</time></trkpt><trkpt lat="41.89162270280817" lon="2.769218912711079"><ele>128.0</ele><time>2026-04-11T07:30:26.993Z</time></trkpt><trkpt lat="41.89154857954217" lon="2.76917122259061"><ele>128.0</ele><time>2026-04-11T07:30:30.995Z</time></trkpt><trkpt lat="41.89147230272979" lon="2.7691344484677987"><ele>127.99999999999999</ele><time>2026-04-11T07:30:34.997Z</time></trkpt><trkpt lat="41.89139606150684" lon="2.769088878981328"><ele>128.0</ele><time>2026-04-11T07:30:38.998Z</time></trkpt><trkpt lat="41.89132426873964" lon="2.769067264185285"><ele>128.0</ele><time>2026-04-11T07:30:43.999Z</time></trkpt><trkpt lat="41.89126690301994" lon="2.769023599911627"><ele>127.99999999999999</ele><time>2026-04-11T07:30:46.999Z</time></trkpt><trkpt lat="41.89120800209301" lon="2.768986234645485"><ele>128.0</ele><time>2026-04-11T07:30:50Z</time></trkpt><trkpt lat="41.89114530164449" lon="2.768956678270026"><ele>128.0</ele><time>2026-04-11T07:30:53Z</time></trkpt><trkpt lat="41.89108994676134" lon="2.7689159834825077"><ele>127.99999999999999</ele><time>2026-04-11T07:30:56Z</time></trkpt><trkpt lat="41.891023410770416" lon="2.7688860762374388"><ele>128.0</ele><time>2026-04-11T07:30:59Z</time></trkpt><trkpt lat="41.890964679127954" lon="2.7688437433425137"><ele>128.0</ele><time>2026-04-11T07:31:02.001Z</time></trkpt><trkpt lat="41.89089231883432" lon="2.768809329685087"><ele>127.66666666666666</ele><time>2026-04-11T07:31:06.001Z</time></trkpt><trkpt lat="41.89082383102226" lon="2.7687734086620077"><ele>127.33333333333333</ele><time>2026-04-11T07:31:09.001Z</time></trkpt><trkpt lat="41.89076064220489" lon="2.7687422254611955"><ele>127.0</ele><time>2026-04-11T07:31:12.001Z</time></trkpt><trkpt lat="41.89068141605922" lon="2.7686980380159554"><ele>126.66666666666666</ele><time>2026-04-11T07:31:16.001Z</time></trkpt><trkpt lat="41.89062054688068" lon="2.768664943290652"><ele>126.33333333333333</ele><time>2026-04-11T07:31:19.001Z</time></trkpt><trkpt lat="41.89054620173687" lon="2.768611075800561"><ele>126.0</ele><time>2026-04-11T07:31:23.001Z</time></trkpt><trkpt lat="41.89046395986142" lon="2.7685768704357128"><ele>126.0</ele><time>2026-04-11T07:31:27.002Z</time></trkpt><trkpt lat="41.8904024941307" lon="2.768543696972885"><ele>126.0</ele><time>2026-04-11T07:31:30.002Z</time></trkpt><trkpt lat="41.89033928542637" lon="2.768508032141708"><ele>126.0</ele><time>2026-04-11T07:31:33.002Z</time></trkpt><trkpt lat="41.89025563477551" lon="2.768474315017944"><ele>126.0</ele><time>2026-04-11T07:31:37.002Z</time></trkpt><trkpt lat="41.890181533099565" lon="2.768440659233928"><ele>126.0</ele><time>2026-04-11T07:31:41.002Z</time></trkpt><trkpt lat="41.890104271468445" lon="2.7684038964249025"><ele>126.0</ele><time>2026-04-11T07:31:45.002Z</time></trkpt><trkpt lat="41.8900392657875" lon="2.768373401999877"><ele>125.57142857142857</ele><time>2026-04-11T07:31:48.002Z</time></trkpt><trkpt lat="41.889971484133945" lon="2.7683220710738614"><ele>125.14285714285714</ele><time>2026-04-11T07:31:52.002Z</time></trkpt><trkpt lat="41.88990882051715" lon="2.768291603875941"><ele>124.71428571428572</ele><time>2026-04-11T07:31:55.002Z</time></trkpt><trkpt lat="41.88984825819813" lon="2.768258873909383"><ele>124.28571428571429</ele><time>2026-04-11T07:31:58.002Z</time></trkpt><trkpt lat="41.88978978249646" lon="2.768219654427095"><ele>123.85714285714286</ele><time>2026-04-11T07:32:01.002Z</time></trkpt><trkpt lat="41.88972845144482" lon="2.7681846381300743"><ele>123.42857142857144</ele><time>2026-04-11T07:32:04.002Z</time></trkpt><trkpt lat="41.88965425240992" lon="2.7681450120446724"><ele>123.00000000000001</ele><time>2026-04-11T07:32:08.002Z</time></trkpt><trkpt lat="41.88959663347709" lon="2.76810846938618"><ele>123.0</ele><time>2026-04-11T07:32:11.002Z</time></trkpt><trkpt lat="41.88952065856771" lon="2.76807665493444"><ele>123.0</ele><time>2026-04-11T07:32:15.002Z</time></trkpt><trkpt lat="41.88945130737906" lon="2.7680278156414606"><ele>123.0</ele><time>2026-04-11T07:32:19.001Z</time></trkpt><trkpt lat="41.88939028310803" lon="2.767992218356311"><ele>123.0</ele><time>2026-04-11T07:32:22.001Z</time></trkpt><trkpt lat="41.889315832534784" lon="2.7679569832549644"><ele>123.0</ele><time>2026-04-11T07:32:26.001Z</time></trkpt><trkpt lat="41.889261065847826" lon="2.767904745592516"><ele>123.0</ele><time>2026-04-11T07:32:29.001Z</time></trkpt><trkpt lat="41.88918048124996" lon="2.767872891905654"><ele>122.57142857142858</ele><time>2026-04-11T07:32:33.001Z</time></trkpt><trkpt lat="41.88911259306331" lon="2.767823667723079"><ele>122.14285714285714</ele><time>2026-04-11T07:32:37.001Z</time></trkpt><trkpt lat="41.889038806942295" lon="2.767778732434421"><ele>121.71428571428572</ele><time>2026-04-11T07:32:41.001Z</time></trkpt><trkpt lat="41.88896563364622" lon="2.7677369066388136"><ele>121.28571428571429</ele><time>2026-04-11T07:32:45Z</time></trkpt><trkpt lat="41.888895778524464" lon="2.7676964657259857"><ele>120.85714285714286</ele><time>2026-04-11T07:32:49Z</time></trkpt><trkpt lat="41.88884226103948" lon="2.767643132325601"><ele>120.42857142857143</ele><time>2026-04-11T07:32:52Z</time></trkpt><trkpt lat="41.88878502180944" lon="2.7676037422379682"><ele>120.0</ele><time>2026-04-11T07:32:55Z</time></trkpt><trkpt lat="41.8887113561639" lon="2.7675596942774328"><ele>120.0</ele><time>2026-04-11T07:32:59Z</time></trkpt><trkpt lat="41.88864276759886" lon="2.767527713512375"><ele>120.0</ele><time>2026-04-11T07:33:03Z</time></trkpt><trkpt lat="41.888574770147564" lon="2.7674855166358214"><ele>120.0</ele><time>2026-04-11T07:33:07Z</time></trkpt><trkpt lat="41.888505691408184" lon="2.7674399826939546"><ele>120.0</ele><time>2026-04-11T07:33:11Z</time></trkpt><trkpt lat="41.8884459741773" lon="2.7674065622463493"><ele>120.0</ele><time>2026-04-11T07:33:14.001Z</time></trkpt><trkpt lat="41.8883818203473" lon="2.7673556507412678"><ele>120.0</ele><time>2026-04-11T07:33:18.001Z</time></trkpt><trkpt lat="41.88831845204335" lon="2.7673088841295335"><ele>120.0</ele><time>2026-04-11T07:33:22.001Z</time></trkpt><trkpt lat="41.888249589954604" lon="2.7672816309074477"><ele>120.0</ele><time>2026-04-11T07:33:26.001Z</time></trkpt><trkpt lat="41.888177102185054" lon="2.767239852199564"><ele>120.0</ele><time>2026-04-11T07:33:30.001Z</time></trkpt><trkpt lat="41.888106620764574" lon="2.7671945725680502"><ele>120.0</ele><time>2026-04-11T07:33:34.001Z</time></trkpt><trkpt lat="41.888036318617914" lon="2.767159006068415"><ele>120.0</ele><time>2026-04-11T07:33:38.001Z</time></trkpt><trkpt lat="41.88797037503333" lon="2.76710887084697"><ele>120.0</ele><time>2026-04-11T07:33:42.001Z</time></trkpt><trkpt lat="41.887902372917075" lon="2.767064201768566"><ele>120.0</ele><time>2026-04-11T07:33:46.001Z</time></trkpt><trkpt lat="41.88783151374011" lon="2.7670055977935943"><ele>120.0</ele><time>2026-04-11T07:33:50.001Z</time></trkpt><trkpt lat="41.88776475281809" lon="2.7669447302241506"><ele>120.0</ele><time>2026-04-11T07:33:54.001Z</time></trkpt><trkpt lat="41.88769345651841" lon="2.766894445162557"><ele>120.0</ele><time>2026-04-11T07:33:58.001Z</time></trkpt><trkpt lat="41.887627336319696" lon="2.7668309880503847"><ele>120.0</ele><time>2026-04-11T07:34:02.001Z</time></trkpt><trkpt lat="41.88757032083291" lon="2.76679017416505"><ele>120.0</ele><time>2026-04-11T07:34:05.001Z</time></trkpt><trkpt lat="41.88751284920049" lon="2.7667290718652326"><ele>120.0</ele><time>2026-04-11T07:34:09.001Z</time></trkpt><trkpt lat="41.887453420610285" lon="2.766697003362928"><ele>120.0</ele><time>2026-04-11T07:34:12.001Z</time></trkpt><trkpt lat="41.88738598244107" lon="2.76667708307916"><ele>119.66666666666667</ele><time>2026-04-11T07:34:16.001Z</time></trkpt><trkpt lat="41.88732290195299" lon="2.7666260221911787"><ele>119.33333333333334</ele><time>2026-04-11T07:34:20.001Z</time></trkpt><trkpt lat="41.88725207481537" lon="2.766569518472284"><ele>119.0</ele><time>2026-04-11T07:34:24.001Z</time></trkpt><trkpt lat="41.887189569709356" lon="2.766495558530377"><ele>118.66666666666667</ele><time>2026-04-11T07:34:28.001Z</time></trkpt><trkpt lat="41.8871223713036" lon="2.766444226222736"><ele>118.33333333333334</ele><time>2026-04-11T07:34:32Z</time></trkpt><trkpt lat="41.88704971522585" lon="2.766395349489515"><ele>118.0</ele><time>2026-04-11T07:34:36.001Z</time></trkpt><trkpt lat="41.88697808829674" lon="2.7663391015052263"><ele>118.00000000000001</ele><time>2026-04-11T07:34:40.001Z</time></trkpt><trkpt lat="41.88690919705737" lon="2.766291389639364"><ele>118.0</ele><time>2026-04-11T07:34:44.001Z</time></trkpt><trkpt lat="41.88685224941214" lon="2.7662530012851816"><ele>118.0</ele><time>2026-04-11T07:34:47.001Z</time></trkpt><trkpt lat="41.8867794121736" lon="2.7662048843645577"><ele>118.0</ele><time>2026-04-11T07:34:51.001Z</time></trkpt><trkpt lat="41.88670491814714" lon="2.7661595836535153"><ele>118.00000000000001</ele><time>2026-04-11T07:34:55.001Z</time></trkpt><trkpt lat="41.886630769781966" lon="2.7661070800488194"><ele>118.0</ele><time>2026-04-11T07:34:59.001Z</time></trkpt><trkpt lat="41.886558467098986" lon="2.766062319440167"><ele>117.33333333333334</ele><time>2026-04-11T07:35:03.001Z</time></trkpt><trkpt lat="41.88648665079534" lon="2.766011620788224"><ele>116.66666666666667</ele><time>2026-04-11T07:35:07.001Z</time></trkpt><trkpt lat="41.886417737369634" lon="2.7659637502287953"><ele>116.0</ele><time>2026-04-11T07:35:11.001Z</time></trkpt><trkpt lat="41.88634993954388" lon="2.765919475441385"><ele>115.33333333333334</ele><time>2026-04-11T07:35:15.001Z</time></trkpt><trkpt lat="41.88629427142169" lon="2.7658760867479013"><ele>114.66666666666667</ele><time>2026-04-11T07:35:18.001Z</time></trkpt><trkpt lat="41.88622257005204" lon="2.7658231674150477"><ele>114.0</ele><time>2026-04-11T07:35:22.001Z</time></trkpt><trkpt lat="41.88615007430847" lon="2.7657972384659564"><ele>114.0</ele><time>2026-04-11T07:35:26.001Z</time></trkpt><trkpt lat="41.886086259414334" lon="2.7657380500615374"><ele>113.99999999999999</ele><time>2026-04-11T07:35:30.001Z</time></trkpt><trkpt lat="41.88602265774322" lon="2.7656895477430314"><ele>114.0</ele><time>2026-04-11T07:35:34.001Z</time></trkpt><trkpt lat="41.88596858413018" lon="2.7656426655289064"><ele>114.0</ele><time>2026-04-11T07:35:37.001Z</time></trkpt><trkpt lat="41.88589905101338" lon="2.76559778325231"><ele>113.99999999999999</ele><time>2026-04-11T07:35:40.001Z</time></trkpt><trkpt lat="41.88583261348755" lon="2.7655413384966856"><ele>114.0</ele><time>2026-04-11T07:35:43.001Z</time></trkpt><trkpt lat="41.885765502474534" lon="2.765500399000486"><ele>114.0</ele><time>2026-04-11T07:35:46.001Z</time></trkpt><trkpt lat="41.885704314904025" lon="2.765461487821137"><ele>113.5</ele><time>2026-04-11T07:35:49.001Z</time></trkpt><trkpt lat="41.88563333979403" lon="2.7654082466536876"><ele>113.0</ele><time>2026-04-11T07:35:52.001Z</time></trkpt><trkpt lat="41.88556064329409" lon="2.765351116352976"><ele>112.5</ele><time>2026-04-11T07:35:55.001Z</time></trkpt><trkpt lat="41.88549931549893" lon="2.7653010440169736"><ele>112.0</ele><time>2026-04-11T07:35:58.001Z</time></trkpt><trkpt lat="41.8854400903736" lon="2.765252986028735"><ele>111.5</ele><time>2026-04-11T07:36:01.001Z</time></trkpt><trkpt lat="41.885371574621054" lon="2.765211951756792"><ele>111.0</ele><time>2026-04-11T07:36:04.001Z</time></trkpt><trkpt lat="41.88530535597665" lon="2.765175362755639"><ele>111.0</ele><time>2026-04-11T07:36:07.001Z</time></trkpt><trkpt lat="41.88523718156605" lon="2.7651208315225793"><ele>111.0</ele><time>2026-04-11T07:36:10.001Z</time></trkpt><trkpt lat="41.88517283263811" lon="2.7650873011334003"><ele>111.0</ele><time>2026-04-11T07:36:13.001Z</time></trkpt><trkpt lat="41.88510915486998" lon="2.765055640559915"><ele>111.0</ele><time>2026-04-11T07:36:16.001Z</time></trkpt><trkpt lat="41.88503570067745" lon="2.765033735707722"><ele>111.0</ele><time>2026-04-11T07:36:19.001Z</time></trkpt><trkpt lat="41.88497277020339" lon="2.7650088079702657"><ele>111.0</ele><time>2026-04-11T07:36:22.001Z</time></trkpt><trkpt lat="41.88489212908484" lon="2.76501386044455"><ele>111.0</ele><time>2026-04-11T07:36:26.001Z</time></trkpt><trkpt lat="41.88482602940735" lon="2.7649699792023577"><ele>110.85714285714285</ele><time>2026-04-11T07:36:33Z</time></trkpt><trkpt lat="41.88475616037588" lon="2.7649140110030643"><ele>110.71428571428572</ele><time>2026-04-11T07:36:37Z</time></trkpt><trkpt lat="41.88470028948287" lon="2.7648543588413403"><ele>110.57142857142857</ele><time>2026-04-11T07:36:41Z</time></trkpt><trkpt lat="41.884637080542525" lon="2.76482966379759"><ele>110.42857142857142</ele><time>2026-04-11T07:36:44Z</time></trkpt><trkpt lat="41.8845757817911" lon="2.7648059394199103"><ele>110.28571428571428</ele><time>2026-04-11T07:36:47Z</time></trkpt><trkpt lat="41.88451203498624" lon="2.764849325469472"><ele>110.14285714285714</ele><time>2026-04-11T07:36:51Z</time></trkpt><trkpt lat="41.88449670606859" lon="2.7649411544266007"><ele>110.0</ele><time>2026-04-11T07:36:55Z</time></trkpt><trkpt lat="41.88447613789661" lon="2.765048066387995"><ele>109.99999999999999</ele><time>2026-04-11T07:36:59Z</time></trkpt><trkpt lat="41.88443775887377" lon="2.7651332878816937"><ele>110.0</ele><time>2026-04-11T07:37:02Z</time></trkpt><trkpt lat="41.88441929670977" lon="2.7652227036296906"><ele>110.0</ele><time>2026-04-11T07:37:05Z</time></trkpt><trkpt lat="41.88439746026667" lon="2.765307167425829"><ele>110.0</ele><time>2026-04-11T07:37:08.141Z</time></trkpt><trkpt lat="41.88437208695737" lon="2.765389418430325"><ele>110.0</ele><time>2026-04-11T07:37:11.139Z</time></trkpt><trkpt lat="41.8843294093325" lon="2.765451814565088"><ele>109.99999999999999</ele><time>2026-04-11T07:37:15.139Z</time></trkpt><trkpt lat="41.884269257869235" lon="2.7655266633725213"><ele>110.0</ele><time>2026-04-11T07:37:19Z</time></trkpt><trkpt lat="41.884208262994214" lon="2.7656026548098005"><ele>109.66666666666666</ele><time>2026-04-11T07:37:22Z</time></trkpt><trkpt lat="41.88414899400366" lon="2.7656574992390763"><ele>109.33333333333333</ele><time>2026-04-11T07:37:26Z</time></trkpt><trkpt lat="41.88411106123344" lon="2.7657254971221623"><ele>109.0</ele><time>2026-04-11T07:37:29Z</time></trkpt><trkpt lat="41.884057709258364" lon="2.7656396773009977"><ele>108.66666666666666</ele><time>2026-04-11T07:37:32Z</time></trkpt><trkpt lat="41.884019815583976" lon="2.7655663875252094"><ele>108.33333333333333</ele><time>2026-04-11T07:37:36Z</time></trkpt><trkpt lat="41.88395239828199" lon="2.765508358802079"><ele>108.0</ele><time>2026-04-11T07:37:42.001Z</time></trkpt><trkpt lat="41.884051013738556" lon="2.7654739671610633"><ele>108.0</ele><time>2026-04-11T07:37:47.001Z</time></trkpt><trkpt lat="41.88409750654717" lon="2.765400241744294"><ele>108.0</ele><time>2026-04-11T07:37:48.001Z</time></trkpt><trkpt lat="41.88418867739896" lon="2.7653052387989128"><ele>108.0</ele><time>2026-04-11T07:37:49.001Z</time></trkpt><trkpt lat="41.884279958688346" lon="2.7652422228083027"><ele>108.0</ele><time>2026-04-11T07:37:50.001Z</time></trkpt><trkpt lat="41.88444911016376" lon="2.765085448005207"><ele>108.33333333333333</ele><time>2026-04-11T07:37:51.001Z</time></trkpt><trkpt lat="41.88449652018026" lon="2.76499914502538"><ele>108.66666666666666</ele><time>2026-04-11T07:37:52.001Z</time></trkpt><trkpt lat="41.88453372189434" lon="2.7649005224600374"><ele>109.0</ele><time>2026-04-11T07:37:54.001Z</time></trkpt><trkpt lat="41.88458227206801" lon="2.764812391128139"><ele>109.33333333333333</ele><time>2026-04-11T07:37:57.001Z</time></trkpt><trkpt lat="41.88465242761192" lon="2.76481607836787"><ele>109.66666666666666</ele><time>2026-04-11T07:38:00.001Z</time></trkpt><trkpt lat="41.88471834367651" lon="2.764846171992498"><ele>110.0</ele><time>2026-04-11T07:38:03.001Z</time></trkpt><trkpt lat="41.884776746974666" lon="2.764887941484445"><ele>109.99999999999999</ele><time>2026-04-11T07:38:06.001Z</time></trkpt><trkpt lat="41.88483780367033" lon="2.764944020529033"><ele>110.0</ele><time>2026-04-11T07:38:10.001Z</time></trkpt><trkpt lat="41.884907501193915" lon="2.764975388544431"><ele>110.0</ele><time>2026-04-11T07:38:19.001Z</time></trkpt><trkpt lat="41.884980514793135" lon="2.764961960967295"><ele>110.0</ele><time>2026-04-11T07:38:23.001Z</time></trkpt><trkpt lat="41.8850558685318" lon="2.7650001158826982"><ele>109.99999999999999</ele><time>2026-04-11T07:38:27.001Z</time></trkpt><trkpt lat="41.885129438582275" lon="2.7650386552973814"><ele>110.0</ele><time>2026-04-11T07:38:31.001Z</time></trkpt><trkpt lat="41.88520400429919" lon="2.7650776309280727"><ele>110.14285714285714</ele><time>2026-04-11T07:38:35Z</time></trkpt><trkpt lat="41.885266427838886" lon="2.765094265698347"><ele>110.28571428571428</ele><time>2026-04-11T07:38:38Z</time></trkpt><trkpt lat="41.88531870773591" lon="2.765146927733751"><ele>110.42857142857142</ele><time>2026-04-11T07:38:41Z</time></trkpt><trkpt lat="41.88537627019711" lon="2.7651827554765402"><ele>110.57142857142857</ele><time>2026-04-11T07:38:44Z</time></trkpt><trkpt lat="41.88544007617211" lon="2.765216453604672"><ele>110.71428571428572</ele><time>2026-04-11T07:38:47Z</time></trkpt><trkpt lat="41.885497850367216" lon="2.7652577580798487"><ele>110.85714285714285</ele><time>2026-04-11T07:38:50Z</time></trkpt><trkpt lat="41.885570425649675" lon="2.765294886395563"><ele>111.0</ele><time>2026-04-11T07:38:54Z</time></trkpt><trkpt lat="41.885626303911295" lon="2.76533452280941"><ele>111.0</ele><time>2026-04-11T07:38:57Z</time></trkpt><trkpt lat="41.88569792201085" lon="2.7653862788571195"><ele>111.0</ele><time>2026-04-11T07:39:01Z</time></trkpt><trkpt lat="41.88575471952817" lon="2.7654284683767334"><ele>111.0</ele><time>2026-04-11T07:39:04Z</time></trkpt><trkpt lat="41.88581936572916" lon="2.7654744693556594"><ele>111.0</ele><time>2026-04-11T07:39:08Z</time></trkpt><trkpt lat="41.88588308168583" lon="2.765504585090129"><ele>111.0</ele><time>2026-04-11T07:39:11Z</time></trkpt><trkpt lat="41.88594642040186" lon="2.765569479355648"><ele>111.0</ele><time>2026-04-11T07:39:15Z</time></trkpt><trkpt lat="41.88600461722076" lon="2.765615691440814"><ele>111.0</ele><time>2026-04-11T07:39:18Z</time></trkpt><trkpt lat="41.886069031722194" lon="2.765694172908282"><ele>111.42857142857142</ele><time>2026-04-11T07:39:23Z</time></trkpt><trkpt lat="41.88613385841789" lon="2.7657534857552486"><ele>111.85714285714286</ele><time>2026-04-11T07:39:27.001Z</time></trkpt><trkpt lat="41.886194452126595" lon="2.7658023700949896"><ele>112.28571428571428</ele><time>2026-04-11T07:39:30.001Z</time></trkpt><trkpt lat="41.886261646311915" lon="2.7658564779489807"><ele>112.71428571428571</ele><time>2026-04-11T07:39:34.001Z</time></trkpt><trkpt lat="41.886321391580765" lon="2.765892075374999"><ele>113.14285714285714</ele><time>2026-04-11T07:39:37.001Z</time></trkpt><trkpt lat="41.88639149283" lon="2.765942706682188"><ele>113.57142857142857</ele><time>2026-04-11T07:39:41.001Z</time></trkpt><trkpt lat="41.88644706816278" lon="2.7659985266797324"><ele>114.0</ele><time>2026-04-11T07:39:45.001Z</time></trkpt><trkpt lat="41.88650413738554" lon="2.766043123986149"><ele>114.14285714285714</ele><time>2026-04-11T07:39:48.001Z</time></trkpt><trkpt lat="41.88657032911041" lon="2.7660808271375874"><ele>114.28571428571428</ele><time>2026-04-11T07:39:51.001Z</time></trkpt><trkpt lat="41.88662169965216" lon="2.7661315817967527"><ele>114.42857142857142</ele><time>2026-04-11T07:39:54.001Z</time></trkpt><trkpt lat="41.88669584253841" lon="2.766174637434105"><ele>114.57142857142856</ele><time>2026-04-11T07:39:58.001Z</time></trkpt><trkpt lat="41.88675611427314" lon="2.7662071939464283"><ele>114.71428571428571</ele><time>2026-04-11T07:40:01.001Z</time></trkpt><trkpt lat="41.886828501695526" lon="2.7662534459158032"><ele>114.85714285714283</ele><time>2026-04-11T07:40:05.001Z</time></trkpt><trkpt lat="41.88690045704446" lon="2.7663013187833103"><ele>114.99999999999999</ele><time>2026-04-11T07:40:09.001Z</time></trkpt><trkpt lat="41.88696932987574" lon="2.766352170930887"><ele>115.42857142857142</ele><time>2026-04-11T07:40:13.001Z</time></trkpt><trkpt lat="41.8870416768377" lon="2.766385295295231"><ele>115.85714285714286</ele><time>2026-04-11T07:40:17.001Z</time></trkpt><trkpt lat="41.88710414948192" lon="2.7664097062789064"><ele>116.28571428571428</ele><time>2026-04-11T07:40:20.001Z</time></trkpt><trkpt lat="41.88716827889418" lon="2.7664684366232573"><ele>116.71428571428571</ele><time>2026-04-11T07:40:24.001Z</time></trkpt><trkpt lat="41.887228670255766" lon="2.7665086853688403"><ele>117.14285714285714</ele><time>2026-04-11T07:40:27.001Z</time></trkpt><trkpt lat="41.887286358372315" lon="2.766560993301512"><ele>117.57142857142857</ele><time>2026-04-11T07:40:30.001Z</time></trkpt><trkpt lat="41.88732492228912" lon="2.766636377063347"><ele>118.0</ele><time>2026-04-11T07:40:33.001Z</time></trkpt><trkpt lat="41.88732729053469" lon="2.766741209210118"><ele>118.00000000000001</ele><time>2026-04-11T07:40:38.001Z</time></trkpt><trkpt lat="41.88728494910462" lon="2.76683446061892"><ele>118.0</ele><time>2026-04-11T07:40:42.001Z</time></trkpt><trkpt lat="41.887251125627444" lon="2.76690935367421"><ele>118.0</ele><time>2026-04-11T07:40:45.001Z</time></trkpt><trkpt lat="41.88721798884958" lon="2.766988096430456"><ele>118.0</ele><time>2026-04-11T07:40:48.001Z</time></trkpt><trkpt lat="41.88717350473385" lon="2.7670819299895664"><ele>118.00000000000001</ele><time>2026-04-11T07:40:52.001Z</time></trkpt><trkpt lat="41.887182963235595" lon="2.767187287050685"><ele>118.0</ele><time>2026-04-11T07:40:55.001Z</time></trkpt><trkpt lat="41.887202828717" lon="2.7672893858981507"><ele>118.16666666666667</ele><time>2026-04-11T07:40:58.001Z</time></trkpt><trkpt lat="41.88721085094295" lon="2.7673789749826083"><ele>118.33333333333334</ele><time>2026-04-11T07:41:01.001Z</time></trkpt><trkpt lat="41.88725623493226" lon="2.767472244124706"><ele>118.5</ele><time>2026-04-11T07:41:05.001Z</time></trkpt><trkpt lat="41.88730904546848" lon="2.767547241096133"><ele>118.66666666666666</ele><time>2026-04-11T07:41:09.001Z</time></trkpt><trkpt lat="41.88738662534256" lon="2.7675750651805306"><ele>118.83333333333333</ele><time>2026-04-11T07:41:13.001Z</time></trkpt><trkpt lat="41.8874642714341" lon="2.7676046228189426"><ele>119.0</ele><time>2026-04-11T07:41:17.001Z</time></trkpt><trkpt lat="41.88752426417837" lon="2.7676303991811815"><ele>118.99999999999999</ele><time>2026-04-11T07:41:20.001Z</time></trkpt><trkpt lat="41.88759898339597" lon="2.7676551725356693"><ele>119.0</ele><time>2026-04-11T07:41:24.001Z</time></trkpt><trkpt lat="41.887677472885315" lon="2.7676906833226687"><ele>119.0</ele><time>2026-04-11T07:41:28.001Z</time></trkpt><trkpt lat="41.88775607197894" lon="2.767729382710902"><ele>119.0</ele><time>2026-04-11T07:41:32.001Z</time></trkpt><trkpt lat="41.88782301981586" lon="2.7678048514545828"><ele>118.99999999999999</ele><time>2026-04-11T07:41:36.001Z</time></trkpt><trkpt lat="41.88785807998428" lon="2.7678781620507658"><ele>119.0</ele><time>2026-04-11T07:41:39.001Z</time></trkpt><trkpt lat="41.887891522132136" lon="2.7679566314442132"><ele>119.0</ele><time>2026-04-11T07:41:42.001Z</time></trkpt><trkpt lat="41.88789126171931" lon="2.768042803102821"><ele>119.0</ele><time>2026-04-11T07:41:45.001Z</time></trkpt><trkpt lat="41.8879030835863" lon="2.768147180123862"><ele>119.0</ele><time>2026-04-11T07:41:49.001Z</time></trkpt><trkpt lat="41.88790539799306" lon="2.7682390689794367"><ele>119.0</ele><time>2026-04-11T07:41:52.001Z</time></trkpt><trkpt lat="41.88791967190859" lon="2.768328444642314"><ele>119.0</ele><time>2026-04-11T07:41:55.001Z</time></trkpt><trkpt lat="41.88793470199627" lon="2.768416412091543"><ele>119.0</ele><time>2026-04-11T07:41:58.001Z</time></trkpt><trkpt lat="41.887951493867135" lon="2.768508635306698"><ele>119.0</ele><time>2026-04-11T07:42:01.001Z</time></trkpt><trkpt lat="41.88795164313511" lon="2.768604434804406"><ele>118.71428571428572</ele><time>2026-04-11T07:42:04.001Z</time></trkpt><trkpt lat="41.88796481602067" lon="2.7686891525807082"><ele>118.42857142857143</ele><time>2026-04-11T07:42:07.001Z</time></trkpt><trkpt lat="41.887972787496516" lon="2.7687995225772988"><ele>118.14285714285714</ele><time>2026-04-11T07:42:11.001Z</time></trkpt><trkpt lat="41.887988224954384" lon="2.7688880881591644"><ele>117.85714285714286</ele><time>2026-04-11T07:42:14.001Z</time></trkpt><trkpt lat="41.887992080736765" lon="2.7689759234293914"><ele>117.57142857142858</ele><time>2026-04-11T07:42:17.001Z</time></trkpt><trkpt lat="41.88800426702706" lon="2.7690684601739104"><ele>117.28571428571429</ele><time>2026-04-11T07:42:20.001Z</time></trkpt><trkpt lat="41.88801595006868" lon="2.7691527468922863"><ele>117.0</ele><time>2026-04-11T07:42:23.001Z</time></trkpt><trkpt lat="41.88804338433268" lon="2.769254939424754"><ele>117.0</ele><time>2026-04-11T07:42:27.001Z</time></trkpt><trkpt lat="41.88807587898985" lon="2.769333761951529"><ele>117.00000000000001</ele><time>2026-04-11T07:42:30.001Z</time></trkpt><trkpt lat="41.88809658549983" lon="2.7694194299101937"><ele>117.0</ele><time>2026-04-11T07:42:33.001Z</time></trkpt><trkpt lat="41.888124369336815" lon="2.769504493648012"><ele>117.0</ele><time>2026-04-11T07:42:36.001Z</time></trkpt><trkpt lat="41.88813699613001" lon="2.7696000278078596"><ele>117.00000000000001</ele><time>2026-04-11T07:42:39.001Z</time></trkpt><trkpt lat="41.8881557767572" lon="2.769707035552505"><ele>117.0</ele><time>2026-04-11T07:42:43.001Z</time></trkpt><trkpt lat="41.88816240690839" lon="2.7698025903636023"><ele>117.0</ele><time>2026-04-11T07:42:46.001Z</time></trkpt><trkpt lat="41.888167099638075" lon="2.769894041896603"><ele>116.85714285714286</ele><time>2026-04-11T07:42:49.001Z</time></trkpt><trkpt lat="41.88818197446627" lon="2.7700028328329096"><ele>116.71428571428572</ele><time>2026-04-11T07:42:53.001Z</time></trkpt><trkpt lat="41.888188326661265" lon="2.7700974558685973"><ele>116.57142857142858</ele><time>2026-04-11T07:42:57.001Z</time></trkpt><trkpt lat="41.88820674763194" lon="2.77018872663639"><ele>116.42857142857144</ele><time>2026-04-11T07:43:01.001Z</time></trkpt><trkpt lat="41.88822098551172" lon="2.7702832724467767"><ele>116.28571428571429</ele><time>2026-04-11T07:43:04.001Z</time></trkpt><trkpt lat="41.88824216240886" lon="2.770379844154186"><ele>116.14285714285717</ele><time>2026-04-11T07:43:07.001Z</time></trkpt><trkpt lat="41.8882706767484" lon="2.770475910223665"><ele>116.00000000000001</ele><time>2026-04-11T07:43:10.001Z</time></trkpt><trkpt lat="41.888295782368345" lon="2.770572459359148"><ele>116.00000000000001</ele><time>2026-04-11T07:43:13.001Z</time></trkpt><trkpt lat="41.88832096826347" lon="2.7706572998881684"><ele>116.0</ele><time>2026-04-11T07:43:16.001Z</time></trkpt><trkpt lat="41.88834502906139" lon="2.770769407457186"><ele>116.00000000000001</ele><time>2026-04-11T07:43:20.001Z</time></trkpt><trkpt lat="41.88835561578536" lon="2.770863491438861"><ele>116.00000000000001</ele><time>2026-04-11T07:43:23.001Z</time></trkpt><trkpt lat="41.88835778428812" lon="2.770949502545789"><ele>116.0</ele><time>2026-04-11T07:43:26.001Z</time></trkpt><trkpt lat="41.88834927513951" lon="2.771037183944203"><ele>116.00000000000001</ele><time>2026-04-11T07:43:29.001Z</time></trkpt><trkpt lat="41.888340215202504" lon="2.771143548211217"><ele>116.00000000000001</ele><time>2026-04-11T07:43:32.001Z</time></trkpt><trkpt lat="41.888332935498646" lon="2.771230886551201"><ele>115.71428571428572</ele><time>2026-04-11T07:43:35.002Z</time></trkpt><trkpt lat="41.88831955699818" lon="2.7713308311686293"><ele>115.42857142857143</ele><time>2026-04-11T07:43:38.002Z</time></trkpt><trkpt lat="41.88830854125706" lon="2.771431611970878"><ele>115.14285714285714</ele><time>2026-04-11T07:43:41.002Z</time></trkpt><trkpt lat="41.88830679088633" lon="2.7715264159894275"><ele>114.85714285714286</ele><time>2026-04-11T07:43:44.002Z</time></trkpt><trkpt lat="41.888320379280195" lon="2.7716164088952575"><ele>114.57142857142856</ele><time>2026-04-11T07:43:47.002Z</time></trkpt><trkpt lat="41.88835494942009" lon="2.7716884576374037"><ele>114.28571428571428</ele><time>2026-04-11T07:43:50.002Z</time></trkpt><trkpt lat="41.88841965978112" lon="2.7717243687615296"><ele>114.0</ele><time>2026-04-11T07:43:53.002Z</time></trkpt><trkpt lat="41.888503166874806" lon="2.771743236113651"><ele>114.57142857142857</ele><time>2026-04-11T07:43:57.002Z</time></trkpt><trkpt lat="41.888586170905725" lon="2.771751118882744"><ele>115.14285714285714</ele><time>2026-04-11T07:44:01.002Z</time></trkpt><trkpt lat="41.888649245192525" lon="2.7717522120013594"><ele>115.71428571428571</ele><time>2026-04-11T07:44:04.002Z</time></trkpt><trkpt lat="41.88872709244646" lon="2.771767503140535"><ele>116.28571428571428</ele><time>2026-04-11T07:44:08.002Z</time></trkpt><trkpt lat="41.88881109109346" lon="2.7717855177872237"><ele>116.85714285714286</ele><time>2026-04-11T07:44:12.002Z</time></trkpt><trkpt lat="41.88887910308249" lon="2.7718146829153354"><ele>117.42857142857142</ele><time>2026-04-11T07:44:15.002Z</time></trkpt><trkpt lat="41.888941415573235" lon="2.771835886565712"><ele>118.0</ele><time>2026-04-11T07:44:18.002Z</time></trkpt><trkpt lat="41.88901525221959" lon="2.7718529070439435"><ele>117.71428571428571</ele><time>2026-04-11T07:44:22.002Z</time></trkpt><trkpt lat="41.889076287375964" lon="2.7718941942460735"><ele>117.42857142857144</ele><time>2026-04-11T07:44:25.002Z</time></trkpt><trkpt lat="41.88911120333737" lon="2.771977249956131"><ele>117.14285714285715</ele><time>2026-04-11T07:44:29.002Z</time></trkpt><trkpt lat="41.88908643245628" lon="2.7720848284609048"><ele>116.85714285714286</ele><time>2026-04-11T07:44:33.002Z</time></trkpt><trkpt lat="41.889063874701975" lon="2.7721699991192796"><ele>116.57142857142858</ele><time>2026-04-11T07:44:36.002Z</time></trkpt><trkpt lat="41.8890876698168" lon="2.7720776424361055"><ele>116.2857142857143</ele><time>2026-04-11T07:44:42.002Z</time></trkpt><trkpt lat="41.88911008830589" lon="2.7719917849609943"><ele>116.00000000000001</ele><time>2026-04-11T07:44:45.002Z</time></trkpt><trkpt lat="41.88909972358469" lon="2.7719033397697435"><ele>116.2857142857143</ele><time>2026-04-11T07:44:48.002Z</time></trkpt><trkpt lat="41.889043266090816" lon="2.7718545577750713"><ele>116.57142857142858</ele><time>2026-04-11T07:44:51.002Z</time></trkpt><trkpt lat="41.88897665603755" lon="2.771829099363922"><ele>116.85714285714286</ele><time>2026-04-11T07:44:54.002Z</time></trkpt><trkpt lat="41.88890752567475" lon="2.771816548801871"><ele>117.14285714285715</ele><time>2026-04-11T07:44:57.002Z</time></trkpt><trkpt lat="41.88884086887324" lon="2.7718045039654884"><ele>117.42857142857144</ele><time>2026-04-11T07:45:00.002Z</time></trkpt><trkpt lat="41.88875825544673" lon="2.771783137743025"><ele>117.71428571428571</ele><time>2026-04-11T07:45:04.002Z</time></trkpt><trkpt lat="41.888690048032096" lon="2.771783705166671"><ele>118.0</ele><time>2026-04-11T07:45:07.002Z</time></trkpt><trkpt lat="41.888623784057465" lon="2.7717827360498237"><ele>118.0</ele><time>2026-04-11T07:45:10.002Z</time></trkpt><trkpt lat="41.88855415714358" lon="2.771776891189714"><ele>118.0</ele><time>2026-04-11T07:45:13.002Z</time></trkpt><trkpt lat="41.88848912029436" lon="2.771765503597956"><ele>118.0</ele><time>2026-04-11T07:45:16.002Z</time></trkpt><trkpt lat="41.88842316711382" lon="2.7717523426842225"><ele>118.0</ele><time>2026-04-11T07:45:19.002Z</time></trkpt><trkpt lat="41.88836145413257" lon="2.771717884138436"><ele>118.0</ele><time>2026-04-11T07:45:22.002Z</time></trkpt><trkpt lat="41.88831212895389" lon="2.771633599970046"><ele>118.0</ele><time>2026-04-11T07:45:26.002Z</time></trkpt><trkpt lat="41.88830061448081" lon="2.7715452756915138"><ele>118.0</ele><time>2026-04-11T07:45:29.002Z</time></trkpt><trkpt lat="41.88830512176997" lon="2.7714581926728967"><ele>117.71428571428571</ele><time>2026-04-11T07:45:32.002Z</time></trkpt><trkpt lat="41.888312183382595" lon="2.7713667511519855"><ele>117.42857142857144</ele><time>2026-04-11T07:45:35.002Z</time></trkpt><trkpt lat="41.88832761937946" lon="2.771259069273246"><ele>117.14285714285715</ele><time>2026-04-11T07:45:39.002Z</time></trkpt><trkpt lat="41.888338675000405" lon="2.771175534152755"><ele>116.85714285714286</ele><time>2026-04-11T07:45:42.002Z</time></trkpt><trkpt lat="41.888348753077636" lon="2.771080955586114"><ele>116.57142857142858</ele><time>2026-04-11T07:45:45.002Z</time></trkpt><trkpt lat="41.88835503887576" lon="2.770989909911874"><ele>116.2857142857143</ele><time>2026-04-11T07:45:48.002Z</time></trkpt><trkpt lat="41.88835004741721" lon="2.770903306065317"><ele>116.00000000000001</ele><time>2026-04-11T07:45:51.002Z</time></trkpt><trkpt lat="41.888340670048954" lon="2.7708105718395863"><ele>116.00000000000001</ele><time>2026-04-11T07:45:54.002Z</time></trkpt><trkpt lat="41.888321270120166" lon="2.7707227376841392"><ele>116.0</ele><time>2026-04-11T07:45:57.002Z</time></trkpt><trkpt lat="41.88829537687441" lon="2.7706382740877795"><ele>116.00000000000001</ele><time>2026-04-11T07:46:00.002Z</time></trkpt><trkpt lat="41.8882714430987" lon="2.77054986253662"><ele>116.00000000000001</ele><time>2026-04-11T07:46:03.002Z</time></trkpt><trkpt lat="41.88824725560374" lon="2.7704603502060032"><ele>116.0</ele><time>2026-04-11T07:46:06.002Z</time></trkpt><trkpt lat="41.8882280078123" lon="2.7703791128256614"><ele>116.00000000000001</ele><time>2026-04-11T07:46:09.002Z</time></trkpt><trkpt lat="41.888209341972335" lon="2.7702965898557133"><ele>116.00000000000001</ele><time>2026-04-11T07:46:12.002Z</time></trkpt><trkpt lat="41.88819242279926" lon="2.7702142226353126"><ele>116.00000000000001</ele><time>2026-04-11T07:46:15.002Z</time></trkpt><trkpt lat="41.8881757289034" lon="2.7701271534064165"><ele>116.0</ele><time>2026-04-11T07:46:18.002Z</time></trkpt><trkpt lat="41.88816770122011" lon="2.77003848594483"><ele>116.00000000000001</ele><time>2026-04-11T07:46:21.002Z</time></trkpt><trkpt lat="41.888151076449546" lon="2.7699396367783664"><ele>116.00000000000001</ele><time>2026-04-11T07:46:25.002Z</time></trkpt><trkpt lat="41.88814387061933" lon="2.7698331758301133"><ele>116.0</ele><time>2026-04-11T07:46:29.002Z</time></trkpt><trkpt lat="41.88812972925362" lon="2.769725205451651"><ele>116.00000000000001</ele><time>2026-04-11T07:46:33.002Z</time></trkpt><trkpt lat="41.88812011091321" lon="2.7696258784339873"><ele>116.00000000000001</ele><time>2026-04-11T07:46:37.002Z</time></trkpt><trkpt lat="41.88809644986148" lon="2.7695213016293376"><ele>116.00000000000001</ele><time>2026-04-11T07:46:41.002Z</time></trkpt><trkpt lat="41.888087982882176" lon="2.7694373061379043"><ele>116.0</ele><time>2026-04-11T07:46:44.002Z</time></trkpt><trkpt lat="41.888061229545485" lon="2.7693596792020827"><ele>116.00000000000001</ele><time>2026-04-11T07:46:47.002Z</time></trkpt><trkpt lat="41.888041973531514" lon="2.7692764921788795"><ele>116.00000000000001</ele><time>2026-04-11T07:46:50.002Z</time></trkpt><trkpt lat="41.88802249164431" lon="2.7691909605869953"><ele>116.0</ele><time>2026-04-11T07:46:53.002Z</time></trkpt><trkpt lat="41.88800652014265" lon="2.769089389649856"><ele>116.00000000000001</ele><time>2026-04-11T07:46:57.002Z</time></trkpt><trkpt lat="41.88798764004209" lon="2.769006908638901"><ele>116.00000000000001</ele><time>2026-04-11T07:47:00.002Z</time></trkpt><trkpt lat="41.88797383265304" lon="2.7689229598936795"><ele>116.16666666666666</ele><time>2026-04-11T07:47:03.002Z</time></trkpt><trkpt lat="41.88796608403457" lon="2.7688380593674196"><ele>116.33333333333333</ele><time>2026-04-11T07:47:06.002Z</time></trkpt><trkpt lat="41.88795928912702" lon="2.7687328831543594"><ele>116.5</ele><time>2026-04-11T07:47:10.002Z</time></trkpt><trkpt lat="41.887946424577315" lon="2.7686174095907505"><ele>116.66666666666666</ele><time>2026-04-11T07:47:14.002Z</time></trkpt><trkpt lat="41.88793231802168" lon="2.7685089831772065"><ele>116.83333333333333</ele><time>2026-04-11T07:47:18.002Z</time></trkpt><trkpt lat="41.88792176344386" lon="2.7684002527754425"><ele>117.0</ele><time>2026-04-11T07:47:22.002Z</time></trkpt><trkpt lat="41.88789657764784" lon="2.768286399906264"><ele>117.28571428571429</ele><time>2026-04-11T07:47:26.002Z</time></trkpt><trkpt lat="41.88788953454181" lon="2.768177788439543"><ele>117.57142857142858</ele><time>2026-04-11T07:47:30.002Z</time></trkpt><trkpt lat="41.88787809921863" lon="2.768088063979508"><ele>117.85714285714286</ele><time>2026-04-11T07:47:33.002Z</time></trkpt><trkpt lat="41.88786774428282" lon="2.7680010642859796"><ele>118.14285714285714</ele><time>2026-04-11T07:47:36.002Z</time></trkpt><trkpt lat="41.88783805690324" lon="2.7679040084170325"><ele>118.42857142857143</ele><time>2026-04-11T07:47:39.002Z</time></trkpt><trkpt lat="41.887805081049905" lon="2.7678088872167295"><ele>118.71428571428572</ele><time>2026-04-11T07:47:43.003Z</time></trkpt><trkpt lat="41.88775646315961" lon="2.767737775817283"><ele>119.0</ele><time>2026-04-11T07:47:46.003Z</time></trkpt><trkpt lat="41.887689757951954" lon="2.76769000574205"><ele>118.99999999999999</ele><time>2026-04-11T07:47:50.003Z</time></trkpt><trkpt lat="41.88762535326401" lon="2.7676574738654347"><ele>119.0</ele><time>2026-04-11T07:47:53.003Z</time></trkpt><trkpt lat="41.88754618490784" lon="2.7676260466546516"><ele>119.0</ele><time>2026-04-11T07:47:57.003Z</time></trkpt><trkpt lat="41.88748125600103" lon="2.767613917725777"><ele>119.0</ele><time>2026-04-11T07:48:00.003Z</time></trkpt><trkpt lat="41.88741014007624" lon="2.767584328879706"><ele>118.99999999999999</ele><time>2026-04-11T07:48:04.003Z</time></trkpt><trkpt lat="41.88733252991472" lon="2.767561145050911"><ele>119.0</ele><time>2026-04-11T07:48:08.003Z</time></trkpt><trkpt lat="41.88726110981093" lon="2.767516563503334"><ele>119.0</ele><time>2026-04-11T07:48:12.003Z</time></trkpt><trkpt lat="41.887206763383396" lon="2.767439335719505"><ele>119.0</ele><time>2026-04-11T07:48:17.003Z</time></trkpt><trkpt lat="41.8871862730267" lon="2.7673456928144575"><ele>119.0</ele><time>2026-04-11T07:48:21.003Z</time></trkpt><trkpt lat="41.88720231744305" lon="2.7672618727527403"><ele>119.0</ele><time>2026-04-11T07:48:25.003Z</time></trkpt><trkpt lat="41.88722781217661" lon="2.767177744495485"><ele>119.0</ele><time>2026-04-11T07:48:28.003Z</time></trkpt><trkpt lat="41.887265607481474" lon="2.7670797621301957"><ele>119.0</ele><time>2026-04-11T07:48:32.003Z</time></trkpt><trkpt lat="41.88728662749186" lon="2.766971321485836"><ele>119.0</ele><time>2026-04-11T07:48:36.003Z</time></trkpt><trkpt lat="41.88732101483046" lon="2.766867178686535"><ele>118.85714285714286</ele><time>2026-04-11T07:48:40.003Z</time></trkpt><trkpt lat="41.887360706016686" lon="2.76679261172676"><ele>118.71428571428572</ele><time>2026-04-11T07:48:43.003Z</time></trkpt><trkpt lat="41.88742669619574" lon="2.7667517489599254"><ele>118.57142857142857</ele><time>2026-04-11T07:48:46.003Z</time></trkpt><trkpt lat="41.88750070929384" lon="2.7667851142189535"><ele>118.42857142857143</ele><time>2026-04-11T07:48:50.003Z</time></trkpt><trkpt lat="41.88757707223868" lon="2.7668341632205875"><ele>118.28571428571429</ele><time>2026-04-11T07:48:54.003Z</time></trkpt><trkpt lat="41.8876449575772" lon="2.7668928985209695"><ele>118.14285714285714</ele><time>2026-04-11T07:48:58.003Z</time></trkpt><trkpt lat="41.88770015831271" lon="2.7669389760753864"><ele>118.0</ele><time>2026-04-11T07:49:01.003Z</time></trkpt><trkpt lat="41.8877616522501" lon="2.766973077967924"><ele>118.28571428571428</ele><time>2026-04-11T07:49:04.003Z</time></trkpt><trkpt lat="41.88781343330435" lon="2.767033189413199"><ele>118.57142857142858</ele><time>2026-04-11T07:49:09.003Z</time></trkpt><trkpt lat="41.88787016644947" lon="2.7670852365529823"><ele>118.85714285714286</ele><time>2026-04-11T07:49:12.003Z</time></trkpt><trkpt lat="41.88793042821028" lon="2.7671235257271656"><ele>119.14285714285714</ele><time>2026-04-11T07:49:15.003Z</time></trkpt><trkpt lat="41.88799184025734" lon="2.7671670009724223"><ele>119.42857142857142</ele><time>2026-04-11T07:49:18.003Z</time></trkpt><trkpt lat="41.88806486641364" lon="2.767224100055245"><ele>119.71428571428572</ele><time>2026-04-11T07:49:22.003Z</time></trkpt><trkpt lat="41.888147843994155" lon="2.7672713300591543"><ele>120.0</ele><time>2026-04-11T07:49:26.003Z</time></trkpt><trkpt lat="41.88820147635305" lon="2.7673184930961785"><ele>120.0</ele><time>2026-04-11T07:49:30.003Z</time></trkpt><trkpt lat="41.88827428915753" lon="2.767327657863943"><ele>120.0</ele><time>2026-04-11T07:49:34.003Z</time></trkpt><trkpt lat="41.88834135266486" lon="2.7673396601931737"><ele>120.0</ele><time>2026-04-11T07:49:41.003Z</time></trkpt><trkpt lat="41.888403833536714" lon="2.7673801185311055"><ele>120.0</ele><time>2026-04-11T07:49:47.003Z</time></trkpt><trkpt lat="41.888456865486425" lon="2.7674376013187327"><ele>120.0</ele><time>2026-04-11T07:49:53.003Z</time></trkpt><trkpt lat="41.88852140867163" lon="2.7674712290604773"><ele>120.0</ele><time>2026-04-11T07:49:59.003Z</time></trkpt><trkpt lat="41.88859178404961" lon="2.767500821540393"><ele>120.0</ele><time>2026-04-11T07:50:05.003Z</time></trkpt><trkpt lat="41.888659559541026" lon="2.767530116776081"><ele>120.0</ele><time>2026-04-11T07:50:11.003Z</time></trkpt><trkpt lat="41.888727169722955" lon="2.7675639668731336"><ele>120.0</ele><time>2026-04-11T07:50:16.003Z</time></trkpt><trkpt lat="41.88878949652124" lon="2.7675844701504078"><ele>120.0</ele><time>2026-04-11T07:50:21.003Z</time></trkpt><trkpt lat="41.88885089825779" lon="2.7676303719347204"><ele>120.0</ele><time>2026-04-11T07:50:27.003Z</time></trkpt><trkpt lat="41.88890751047965" lon="2.7676703019032565"><ele>120.0</ele><time>2026-04-11T07:50:32.003Z</time></trkpt><trkpt lat="41.88897500834763" lon="2.767719142198932"><ele>120.0</ele><time>2026-04-11T07:50:37.003Z</time></trkpt><trkpt lat="41.88903882018794" lon="2.767759112181861"><ele>120.0</ele><time>2026-04-11T07:50:43.003Z</time></trkpt><trkpt lat="41.8891036576738" lon="2.767796549882628"><ele>120.0</ele><time>2026-04-11T07:50:48.003Z</time></trkpt><trkpt lat="41.88917121696742" lon="2.767824654229841"><ele>120.0</ele><time>2026-04-11T07:50:54.003Z</time></trkpt><trkpt lat="41.889237247219285" lon="2.767874465944893"><ele>120.0</ele><time>2026-04-11T07:50:59.003Z</time></trkpt><trkpt lat="41.88930100815683" lon="2.7679025309285588"><ele>120.0</ele><time>2026-04-11T07:51:04.003Z</time></trkpt><trkpt lat="41.88936769333471" lon="2.767933736575856"><ele>120.0</ele><time>2026-04-11T07:51:10.003Z</time></trkpt><trkpt lat="41.88942873333335" lon="2.767982807434744"><ele>120.0</ele><time>2026-04-11T07:51:16.003Z</time></trkpt><trkpt lat="41.88949746244069" lon="2.7680180347042924"><ele>120.0</ele><time>2026-04-11T07:51:22.003Z</time></trkpt><trkpt lat="41.88955409748659" lon="2.768061513255729"><ele>120.42857142857143</ele><time>2026-04-11T07:51:27.003Z</time></trkpt><trkpt lat="41.889608013059316" lon="2.7681068952492605"><ele>120.85714285714286</ele><time>2026-04-11T07:51:32.003Z</time></trkpt><trkpt lat="41.889673897623574" lon="2.7681349230240913"><ele>121.28571428571429</ele><time>2026-04-11T07:51:38.003Z</time></trkpt><trkpt lat="41.88974144276059" lon="2.7681803819499584"><ele>121.71428571428572</ele><time>2026-04-11T07:51:44.003Z</time></trkpt><trkpt lat="41.88980861100915" lon="2.768216814309247"><ele>122.14285714285714</ele><time>2026-04-11T07:51:51.004Z</time></trkpt><trkpt lat="41.88986385142516" lon="2.768257679670684"><ele>122.57142857142858</ele><time>2026-04-11T07:51:56.004Z</time></trkpt><trkpt lat="41.88992730081661" lon="2.7682873201539455"><ele>123.00000000000001</ele><time>2026-04-11T07:52:01.004Z</time></trkpt><trkpt lat="41.88999164744313" lon="2.768318638021125"><ele>123.00000000000001</ele><time>2026-04-11T07:52:06.004Z</time></trkpt><trkpt lat="41.89005280044042" lon="2.7683565921303557"><ele>123.0</ele><time>2026-04-11T07:52:11.004Z</time></trkpt><trkpt lat="41.89011739642814" lon="2.768392944157146"><ele>123.00000000000001</ele><time>2026-04-11T07:52:16.004Z</time></trkpt><trkpt lat="41.89018390671914" lon="2.7684233495493498"><ele>123.00000000000001</ele><time>2026-04-11T07:52:22.004Z</time></trkpt><trkpt lat="41.89024676452895" lon="2.7684628704821583"><ele>123.0</ele><time>2026-04-11T07:52:27.004Z</time></trkpt><trkpt lat="41.890311579409335" lon="2.768488551835037"><ele>123.00000000000001</ele><time>2026-04-11T07:52:32.004Z</time></trkpt><trkpt lat="41.89038277415976" lon="2.768525349915702"><ele>123.00000000000001</ele><time>2026-04-11T07:52:38.004Z</time></trkpt><trkpt lat="41.89044795425008" lon="2.768560150183459"><ele>123.42857142857144</ele><time>2026-04-11T07:52:43.004Z</time></trkpt><trkpt lat="41.890512903544845" lon="2.7685931810000577"><ele>123.85714285714286</ele><time>2026-04-11T07:52:49.004Z</time></trkpt><trkpt lat="41.890577870746746" lon="2.7686239509723145"><ele>124.28571428571429</ele><time>2026-04-11T07:52:54.004Z</time></trkpt><trkpt lat="41.89064241391224" lon="2.768656773757547"><ele>124.71428571428572</ele><time>2026-04-11T07:52:59.004Z</time></trkpt><trkpt lat="41.890713920192596" lon="2.7686975797891353"><ele>125.14285714285714</ele><time>2026-04-11T07:53:05.004Z</time></trkpt><trkpt lat="41.8907858429401" lon="2.768736821445021"><ele>125.57142857142857</ele><time>2026-04-11T07:53:11.004Z</time></trkpt><trkpt lat="41.8908462679407" lon="2.7687657068965295"><ele>126.0</ele><time>2026-04-11T07:53:16.004Z</time></trkpt><trkpt lat="41.89090993080626" lon="2.7688058992976203"><ele>126.28571428571428</ele><time>2026-04-11T07:53:22.004Z</time></trkpt><trkpt lat="41.89097043641613" lon="2.768847256027402"><ele>126.57142857142857</ele><time>2026-04-11T07:53:27.004Z</time></trkpt><trkpt lat="41.89103681408723" lon="2.7688669871214"><ele>126.85714285714286</ele><time>2026-04-11T07:53:32.004Z</time></trkpt><trkpt lat="41.89109898883657" lon="2.7689026291812215"><ele>127.14285714285714</ele><time>2026-04-11T07:53:37.004Z</time></trkpt><trkpt lat="41.89115885558865" lon="2.768932508096172"><ele>127.42857142857142</ele><time>2026-04-11T07:53:42.004Z</time></trkpt><trkpt lat="41.89122180919561" lon="2.768973576879022"><ele>127.71428571428571</ele><time>2026-04-11T07:53:48.004Z</time></trkpt><trkpt lat="41.891284045649336" lon="2.7690192636926763"><ele>128.0</ele><time>2026-04-11T07:53:55.004Z</time></trkpt><trkpt lat="41.89134671497086" lon="2.769053023773634"><ele>128.0</ele><time>2026-04-11T07:54:02.004Z</time></trkpt><trkpt lat="41.891405083228406" lon="2.7690919416162507"><ele>127.99999999999999</ele><time>2026-04-11T07:54:06.004Z</time></trkpt><trkpt lat="41.89147860861413" lon="2.769114862120254"><ele>128.0</ele><time>2026-04-11T07:54:11.004Z</time></trkpt><trkpt lat="41.891550246258916" lon="2.7691590387707925"><ele>128.0</ele><time>2026-04-11T07:54:17.004Z</time></trkpt><trkpt lat="41.891609282319685" lon="2.7692099702993995"><ele>127.99999999999999</ele><time>2026-04-11T07:54:22.004Z</time></trkpt><trkpt lat="41.891665446567686" lon="2.7692514086028495"><ele>128.0</ele><time>2026-04-11T07:54:27.004Z</time></trkpt><trkpt lat="41.89172981986088" lon="2.7693030169246873"><ele>128.0</ele><time>2026-04-11T07:54:33.004Z</time></trkpt><trkpt lat="41.89179015254676" lon="2.769340241778816"><ele>128.0</ele><time>2026-04-11T07:54:38.004Z</time></trkpt><trkpt lat="41.89184886783495" lon="2.7693725326681586"><ele>127.99999999999999</ele><time>2026-04-11T07:54:43.004Z</time></trkpt><trkpt lat="41.891908809502574" lon="2.769414688651314"><ele>128.0</ele><time>2026-04-11T07:54:48.004Z</time></trkpt><trkpt lat="41.89196868894878" lon="2.769451069303773"><ele>128.0</ele><time>2026-04-11T07:54:53.004Z</time></trkpt><trkpt lat="41.89202914463505" lon="2.769496594642471"><ele>127.99999999999999</ele><time>2026-04-11T07:54:59.004Z</time></trkpt><trkpt lat="41.89209519435143" lon="2.769534425507236"><ele>128.0</ele><time>2026-04-11T07:55:05.004Z</time></trkpt><trkpt lat="41.8921598930095" lon="2.7695689753587733"><ele>128.0</ele><time>2026-04-11T07:55:10.004Z</time></trkpt><trkpt lat="41.89222426299125" lon="2.7696043247436917"><ele>128.0</ele><time>2026-04-11T07:55:16.004Z</time></trkpt><trkpt lat="41.89228825675598" lon="2.7696412287698444"><ele>127.99999999999999</ele><time>2026-04-11T07:55:21.004Z</time></trkpt><trkpt lat="41.89235104041227" lon="2.769685111452704"><ele>128.0</ele><time>2026-04-11T07:55:27.004Z</time></trkpt><trkpt lat="41.89240927395307" lon="2.7697290187430736"><ele>128.0</ele><time>2026-04-11T07:55:32.004Z</time></trkpt><trkpt lat="41.89247708582265" lon="2.7697705780880018"><ele>127.99999999999999</ele><time>2026-04-11T07:55:38.004Z</time></trkpt><trkpt lat="41.8925379528556" lon="2.7698248982825326"><ele>128.0</ele><time>2026-04-11T07:55:44.004Z</time></trkpt><trkpt lat="41.892606700349475" lon="2.7698633135518356"><ele>128.0</ele><time>2026-04-11T07:55:50.004Z</time></trkpt><trkpt lat="41.89267268228532" lon="2.769894991072519"><ele>128.0</ele><time>2026-04-11T07:55:55.004Z</time></trkpt><trkpt lat="41.892731825231195" lon="2.7699386841914064"><ele>127.99999999999999</ele><time>2026-04-11T07:56:01.005Z</time></trkpt><trkpt lat="41.89279017747449" lon="2.7699952950196027"><ele>128.0</ele><time>2026-04-11T07:56:06.005Z</time></trkpt><trkpt lat="41.892852551793" lon="2.7700450975508435"><ele>128.0</ele><time>2026-04-11T07:56:11.005Z</time></trkpt><trkpt lat="41.89291647396154" lon="2.7700850342304837"><ele>127.99999999999999</ele><time>2026-04-11T07:56:17.005Z</time></trkpt><trkpt lat="41.89298425727314" lon="2.7701359263825847"><ele>128.0</ele><time>2026-04-11T07:56:23.005Z</time></trkpt><trkpt lat="41.89304330558784" lon="2.7701810824458573"><ele>128.0</ele><time>2026-04-11T07:56:29.005Z</time></trkpt><trkpt lat="41.89310712476279" lon="2.7702113952949237"><ele>127.85714285714285</ele><time>2026-04-11T07:56:34.005Z</time></trkpt><trkpt lat="41.89318016217826" lon="2.7702367334981073"><ele>127.7142857142857</ele><time>2026-04-11T07:56:39.005Z</time></trkpt><trkpt lat="41.89325205063368" lon="2.7702512936396704"><ele>127.57142857142857</ele><time>2026-04-11T07:56:45.005Z</time></trkpt><trkpt lat="41.89331912966421" lon="2.7702718245760476"><ele>127.42857142857142</ele><time>2026-04-11T07:56:51.005Z</time></trkpt><trkpt lat="41.893383450853555" lon="2.7703005796600606"><ele>127.28571428571428</ele><time>2026-04-11T07:56:56.005Z</time></trkpt><trkpt lat="41.89344637319911" lon="2.770329658982144"><ele>127.14285714285714</ele><time>2026-04-11T07:57:01.005Z</time></trkpt><trkpt lat="41.893508369180985" lon="2.770378718693979"><ele>127.0</ele><time>2026-04-11T07:57:07.005Z</time></trkpt><trkpt lat="41.893578986795774" lon="2.7704193843475675"><ele>127.0</ele><time>2026-04-11T07:57:13.005Z</time></trkpt><trkpt lat="41.89364430767383" lon="2.7704592056523425"><ele>127.0</ele><time>2026-04-11T07:57:18.005Z</time></trkpt><trkpt lat="41.893713802804896" lon="2.7705016380613467"><ele>127.0</ele><time>2026-04-11T07:57:24.005Z</time></trkpt><trkpt lat="41.893776873850925" lon="2.770549158154102"><ele>127.0</ele><time>2026-04-11T07:57:30.005Z</time></trkpt><trkpt lat="41.89383236311027" lon="2.7705916752876325"><ele>127.0</ele><time>2026-04-11T07:57:35.005Z</time></trkpt><trkpt lat="41.89389294789106" lon="2.7706336736777106"><ele>127.0</ele><time>2026-04-11T07:57:40.005Z</time></trkpt><trkpt lat="41.89395797903957" lon="2.7706783301256293"><ele>127.0</ele><time>2026-04-11T07:57:45.005Z</time></trkpt><trkpt lat="41.89402544428361" lon="2.7707272507987994"><ele>127.0</ele><time>2026-04-11T07:57:51.005Z</time></trkpt><trkpt lat="41.89408412763031" lon="2.770775295568665"><ele>127.0</ele><time>2026-04-11T07:57:57.005Z</time></trkpt><trkpt lat="41.89414187946751" lon="2.7708141101381303"><ele>127.0</ele><time>2026-04-11T07:58:03.005Z</time></trkpt><trkpt lat="41.89419911011517" lon="2.770862575013642"><ele>127.0</ele><time>2026-04-11T07:58:09.005Z</time></trkpt><trkpt lat="41.89426611376008" lon="2.7708802697106165"><ele>127.0</ele><time>2026-04-11T07:58:15.005Z</time></trkpt><trkpt lat="41.89430978977148" lon="2.7709543385958844"><ele>127.0</ele><time>2026-04-11T07:58:22.005Z</time></trkpt><trkpt lat="41.89436081584679" lon="2.771013715176543"><ele>127.0</ele><time>2026-04-11T07:58:29.005Z</time></trkpt><trkpt lat="41.89429754940778" lon="2.7709768124174574"><ele>127.0</ele><time>2026-04-11T07:58:42.005Z</time></trkpt><trkpt lat="41.89424346313098" lon="2.770929485752476"><ele>127.0</ele><time>2026-04-11T07:58:49Z</time></trkpt><trkpt lat="41.894180985324226" lon="2.770890863095512"><ele>127.0</ele><time>2026-04-11T07:58:55Z</time></trkpt><trkpt lat="41.894118552661226" lon="2.7708499268553135"><ele>127.0</ele><time>2026-04-11T07:59:01Z</time></trkpt><trkpt lat="41.89405426624675" lon="2.7708132540133583"><ele>127.0</ele><time>2026-04-11T07:59:08Z</time></trkpt><trkpt lat="41.894001252850494" lon="2.7707619924479294"><ele>127.0</ele><time>2026-04-11T07:59:13Z</time></trkpt><trkpt lat="41.893943552594564" lon="2.7707021463247177"><ele>127.0</ele><time>2026-04-11T07:59:19Z</time></trkpt><trkpt lat="41.893889820807814" lon="2.770657985162807"><ele>127.0</ele><time>2026-04-11T07:59:25Z</time></trkpt><trkpt lat="41.893818065447846" lon="2.7706343749329956"><ele>127.0</ele><time>2026-04-11T07:59:30Z</time></trkpt><trkpt lat="41.89375630928361" lon="2.7706045402503947"><ele>127.0</ele><time>2026-04-11T07:59:36.001Z</time></trkpt><trkpt lat="41.89368636341262" lon="2.7705712388382184"><ele>127.0</ele><time>2026-04-11T07:59:42.001Z</time></trkpt><trkpt lat="41.893629961706715" lon="2.7705289558422272"><ele>127.0</ele><time>2026-04-11T07:59:47.001Z</time></trkpt><trkpt lat="41.8935611290816" lon="2.7704824999998268"><ele>127.0</ele><time>2026-04-11T07:59:53.001Z</time></trkpt><trkpt lat="41.893507023430516" lon="2.770428007037918"><ele>127.0</ele><time>2026-04-11T08:00:00.001Z</time></trkpt><trkpt lat="41.89343416001027" lon="2.7703979264890504"><ele>127.14285714285714</ele><time>2026-04-11T08:00:07.001Z</time></trkpt><trkpt lat="41.893373821953936" lon="2.770361343667134"><ele>127.28571428571428</ele><time>2026-04-11T08:00:12.001Z</time></trkpt><trkpt lat="41.89330460662132" lon="2.770337806246228"><ele>127.42857142857142</ele><time>2026-04-11T08:00:16.001Z</time></trkpt><trkpt lat="41.893232229764244" lon="2.7703150968796075"><ele>127.57142857142857</ele><time>2026-04-11T08:00:20.001Z</time></trkpt><trkpt lat="41.89315959639711" lon="2.7702915418857916"><ele>127.7142857142857</ele><time>2026-04-11T08:00:23.001Z</time></trkpt><trkpt lat="41.89309631582102" lon="2.7702687174379212"><ele>127.85714285714285</ele><time>2026-04-11T08:00:26.001Z</time></trkpt><trkpt lat="41.893031290696285" lon="2.7702415719660096"><ele>128.0</ele><time>2026-04-11T08:00:29.001Z</time></trkpt><trkpt lat="41.89295951807473" lon="2.7701745873985373"><ele>128.0</ele><time>2026-04-11T08:00:33.001Z</time></trkpt><trkpt lat="41.89289472508064" lon="2.7701237486569568"><ele>127.99999999999999</ele><time>2026-04-11T08:00:37.001Z</time></trkpt><trkpt lat="41.89283951149925" lon="2.770073208138662"><ele>128.0</ele><time>2026-04-11T08:00:40.001Z</time></trkpt><trkpt lat="41.89277856768458" lon="2.7700410141228007"><ele>128.0</ele><time>2026-04-11T08:00:43.001Z</time></trkpt><trkpt lat="41.89271856393967" lon="2.7699939549306714"><ele>127.99999999999999</ele><time>2026-04-11T08:00:46.001Z</time></trkpt><trkpt lat="41.892654383332484" lon="2.7699630565608375"><ele>128.0</ele><time>2026-04-11T08:00:49.001Z</time></trkpt><trkpt lat="41.892598040666876" lon="2.769922534312782"><ele>128.0</ele><time>2026-04-11T08:00:52.001Z</time></trkpt><trkpt lat="41.89254596753139" lon="2.7698662047551452"><ele>128.0</ele><time>2026-04-11T08:00:55.001Z</time></trkpt><trkpt lat="41.89248700638928" lon="2.769828451149328"><ele>127.99999999999999</ele><time>2026-04-11T08:00:58.001Z</time></trkpt><trkpt lat="41.89242019375498" lon="2.769798398098246"><ele>128.0</ele><time>2026-04-11T08:01:01.001Z</time></trkpt><trkpt lat="41.892361912567374" lon="2.769755237076095"><ele>128.0</ele><time>2026-04-11T08:01:04.001Z</time></trkpt><trkpt lat="41.89230353285459" lon="2.7697007531955244"><ele>127.99999999999999</ele><time>2026-04-11T08:01:07.001Z</time></trkpt><trkpt lat="41.892246073952094" lon="2.7696583582837473"><ele>128.0</ele><time>2026-04-11T08:01:10.001Z</time></trkpt><trkpt lat="41.89217702521306" lon="2.769609097790538"><ele>128.0</ele><time>2026-04-11T08:01:13.001Z</time></trkpt><trkpt lat="41.89210076643158" lon="2.769546109648805"><ele>128.0</ele><time>2026-04-11T08:01:17.001Z</time></trkpt><trkpt lat="41.89203951051971" lon="2.7694963155595667"><ele>127.99999999999999</ele><time>2026-04-11T08:01:20.001Z</time></trkpt><trkpt lat="41.89197791138624" lon="2.769454174629295"><ele>128.0</ele><time>2026-04-11T08:01:23.001Z</time></trkpt><trkpt lat="41.89191255376192" lon="2.7694149868074174"><ele>128.0</ele><time>2026-04-11T08:01:26.001Z</time></trkpt><trkpt lat="41.89185062726185" lon="2.769378761012265"><ele>127.99999999999999</ele><time>2026-04-11T08:01:29.001Z</time></trkpt><trkpt lat="41.89182829502187" lon="2.7692941563446327"><ele>128.0</ele><time>2026-04-11T08:01:32.001Z</time></trkpt><trkpt lat="41.89185578714628" lon="2.7692090694985403"><ele>128.0</ele><time>2026-04-11T08:01:35.001Z</time></trkpt><trkpt lat="41.8918885977236" lon="2.7691048803771494"><ele>128.5</ele><time>2026-04-11T08:01:39.001Z</time></trkpt><trkpt lat="41.89190228587293" lon="2.7689927374278414"><ele>129.0</ele><time>2026-04-11T08:01:43.001Z</time></trkpt><trkpt lat="41.891930736848444" lon="2.7688907825914093"><ele>129.5</ele><time>2026-04-11T08:01:47.001Z</time></trkpt><trkpt lat="41.8919511913285" lon="2.7688099928669487"><ele>130.0</ele><time>2026-04-11T08:01:50.002Z</time></trkpt><trkpt lat="41.89197277120143" lon="2.7687257015784987"><ele>130.5</ele><time>2026-04-11T08:01:53.001Z</time></trkpt><trkpt lat="41.89200296675819" lon="2.768628408507222"><ele>131.0</ele><time>2026-04-11T08:01:56.001Z</time></trkpt><trkpt lat="41.89201573353276" lon="2.7685176433083654"><ele>131.0</ele><time>2026-04-11T08:02:00.001Z</time></trkpt><trkpt lat="41.89204804585339" lon="2.7684305551360366"><ele>131.0</ele><time>2026-04-11T08:02:03.001Z</time></trkpt><trkpt lat="41.892061343644116" lon="2.7683243651641463"><ele>131.0</ele><time>2026-04-11T08:02:07.001Z</time></trkpt><trkpt lat="41.89208762124455" lon="2.7682118112277134"><ele>131.0</ele><time>2026-04-11T08:02:11.001Z</time></trkpt><trkpt lat="41.89211050415605" lon="2.7681118253157715"><ele>131.0</ele><time>2026-04-11T08:02:15.001Z</time></trkpt><trkpt lat="41.89211672556949" lon="2.76802075687968"><ele>131.0</ele><time>2026-04-11T08:02:18.001Z</time></trkpt><trkpt lat="41.89215723602957" lon="2.767933546210041"><ele>131.0</ele><time>2026-04-11T08:02:21.001Z</time></trkpt><trkpt lat="41.892175119183555" lon="2.7678456420925412"><ele>131.0</ele><time>2026-04-11T08:02:24.001Z</time></trkpt><trkpt lat="41.8922068539499" lon="2.7677633079587527"><ele>131.0</ele><time>2026-04-11T08:02:27.001Z</time></trkpt><trkpt lat="41.89222870753912" lon="2.7676786671321083"><ele>131.0</ele><time>2026-04-11T08:02:30.001Z</time></trkpt><trkpt lat="41.892246095698255" lon="2.767593289922546"><ele>131.0</ele><time>2026-04-11T08:02:33.001Z</time></trkpt><trkpt lat="41.89226385499398" lon="2.767496438385683"><ele>131.0</ele><time>2026-04-11T08:02:36.001Z</time></trkpt><trkpt lat="41.89228788782617" lon="2.7674030045764972"><ele>131.0</ele><time>2026-04-11T08:02:39.001Z</time></trkpt><trkpt lat="41.89230354820569" lon="2.7673157131148796"><ele>130.71428571428572</ele><time>2026-04-11T08:02:42.001Z</time></trkpt><trkpt lat="41.89231230260794" lon="2.7672253645633327"><ele>130.42857142857144</ele><time>2026-04-11T08:02:45.001Z</time></trkpt><trkpt lat="41.892321161549134" lon="2.7671248251942004"><ele>130.14285714285714</ele><time>2026-04-11T08:02:48.001Z</time></trkpt><trkpt lat="41.892331433937784" lon="2.7670399465613698"><ele>129.85714285714286</ele><time>2026-04-11T08:02:51.001Z</time></trkpt><trkpt lat="41.89234552540844" lon="2.766950384601878"><ele>129.57142857142856</ele><time>2026-04-11T08:02:54.001Z</time></trkpt><trkpt lat="41.892350324885264" lon="2.7668634233728775"><ele>129.28571428571428</ele><time>2026-04-11T08:02:57.001Z</time></trkpt><trkpt lat="41.892378121517474" lon="2.7667720099796913"><ele>129.0</ele><time>2026-04-11T08:03:00.001Z</time></trkpt><trkpt lat="41.892396728394736" lon="2.766682232789293"><ele>128.99999999999997</ele><time>2026-04-11T08:03:03.001Z</time></trkpt><trkpt lat="41.89237373149688" lon="2.7667944804078655"><ele>129.0</ele><time>2026-04-11T08:03:12.001Z</time></trkpt><trkpt lat="41.89236319940981" lon="2.7668902517920353"><ele>129.0</ele><time>2026-04-11T08:03:15.001Z</time></trkpt><trkpt lat="41.89236127614733" lon="2.766987392384855"><ele>129.0</ele><time>2026-04-11T08:03:18.001Z</time></trkpt><trkpt lat="41.89234800964462" lon="2.7670823949734857"><ele>129.0</ele><time>2026-04-11T08:03:21.001Z</time></trkpt><trkpt lat="41.892340184896405" lon="2.7671715849983984"><ele>128.99999999999997</ele><time>2026-04-11T08:03:24.001Z</time></trkpt><trkpt lat="41.892324665715016" lon="2.767267433409197"><ele>129.0</ele><time>2026-04-11T08:03:27.001Z</time></trkpt><trkpt lat="41.89229988843356" lon="2.7673642365351405"><ele>129.0</ele><time>2026-04-11T08:03:30.001Z</time></trkpt><trkpt lat="41.89227907992373" lon="2.767470483878569"><ele>129.0</ele><time>2026-04-11T08:03:33.001Z</time></trkpt><trkpt lat="41.892259546754545" lon="2.767567565203007"><ele>129.0</ele><time>2026-04-11T08:03:36.001Z</time></trkpt><trkpt lat="41.892248617021394" lon="2.7676726006494143"><ele>129.0</ele><time>2026-04-11T08:03:39.001Z</time></trkpt><trkpt lat="41.892238219246785" lon="2.7677760961235016"><ele>129.0</ele><time>2026-04-11T08:03:42.001Z</time></trkpt><trkpt lat="41.89220581502434" lon="2.7678681953519813"><ele>129.0</ele><time>2026-04-11T08:03:45.001Z</time></trkpt><trkpt lat="41.89215514357729" lon="2.7679331540145924"><ele>131.0</ele><time>2026-04-11T08:03:48.001Z</time></trkpt></trkseg></trk></gpx>